Time;durP1;ratioP1;P1;durP2;ratioP2;P2;SDS_P1;SDS_P2;PMS_P1;PMS_P2;Temp;Humidity;BMP_temperature;BMP_pressure;BME280_temperature;BME280_humidity;BME280_pressure;Samples;Min_cycle;Max_cycle;Signal;HPM_P1;HPM_P2
2022/08/03 00:01:07;;;;;;;62.57;4.23;;;;;;;;;;5110880;28;20561;-66
2022/08/03 00:03:35;;;;;;;58.83;4.10;;;;;;;;;;5112555;28;20790;-66
2022/08/03 00:06:02;;;;;;;60.70;4.70;;;;;;;;;;5112185;28;20479;-66
2022/08/03 00:08:29;;;;;;;59.90;3.83;;;;;;;;;;5112116;28;20438;-66
2022/08/03 00:11:01;;;;;;;59.97;4.37;;;;;;;;;;5110392;28;20553;-66
2022/08/03 00:13:30;;;;;;;60.50;3.90;;;;;;;;;;5112275;28;20445;-66
2022/08/03 00:15:58;;;;;;;60.73;4.27;;;;;;;;;;5112392;28;20449;-66
2022/08/03 00:18:27;;;;;;;59.97;4.70;;;;;;;;;;5112125;28;20945;-66
2022/08/03 00:20:54;;;;;;;59.97;4.10;;;;;;;;;;5112074;28;20457;-66
2022/08/03 00:23:22;;;;;;;59.80;3.97;;;;;;;;;;5112216;28;20437;-66
2022/08/03 00:25:49;;;;;;;60.00;3.70;;;;;;;;;;5112050;28;20442;-66
2022/08/03 00:28:16;;;;;;;60.20;3.87;;;;;;;;;;5110655;28;20532;-66
2022/08/03 00:30:46;;;;;;;59.57;4.20;;;;;;;;;;5111255;28;20555;-66
2022/08/03 00:33:13;;;;;;;60.30;3.87;;;;;;;;;;5111720;28;20454;-66
2022/08/03 00:35:43;;;;;;;59.83;4.07;;;;;;;;;;5112103;28;20445;-66
2022/08/03 00:38:10;;;;;;;60.90;4.10;;;;;;;;;;5110642;28;20449;-66
2022/08/03 00:40:39;;;;;;;60.93;4.20;;;;;;;;;;5111549;28;20473;-67
2022/08/03 00:43:08;;;;;;;60.77;4.10;;;;;;;;;;5112424;28;20815;-66
2022/08/03 00:45:36;;;;;;;59.40;4.00;;;;;;;;;;5112138;28;20441;-66
2022/08/03 00:48:06;;;;;;;60.47;3.90;;;;;;;;;;5111903;28;20488;-66
2022/08/03 00:50:38;;;;;;;59.93;3.97;;;;;;;;;;5111056;28;20477;-66
2022/08/03 00:53:07;;;;;;;61.17;4.30;;;;;;;;;;5111784;28;20446;-66
2022/08/03 00:55:34;;;;;;;60.07;4.60;;;;;;;;;;5111793;28;20934;-66
2022/08/03 00:58:05;;;;;;;59.50;3.67;;;;;;;;;;5111891;28;20809;-66
2022/08/03 01:00:34;;;;;;;59.90;4.00;;;;;;;;;;5111632;28;20839;-66
2022/08/03 01:03:02;;;;;;;60.47;3.80;;;;;;;;;;5111789;28;21005;-66
2022/08/03 01:05:30;;;;;;;59.97;3.93;;;;;;;;;;5111786;28;20450;-66
2022/08/03 01:08:03;;;;;;;59.60;3.80;;;;;;;;;;5111624;28;20887;-66
2022/08/03 01:10:38;;;;;;;59.67;3.80;;;;;;;;;;5110364;28;20497;-66
2022/08/03 01:13:14;;;;;;;60.10;3.50;;;;;;;;;;5111843;28;20467;-66
2022/08/03 01:15:44;;;;;;;63.13;4.73;;;;;;;;;;5111657;28;21022;-66
2022/08/03 01:18:15;;;;;;;60.23;4.00;;;;;;;;;;5111565;28;20533;-66
2022/08/03 01:20:44;;;;;;;59.87;4.20;;;;;;;;;;5111545;28;20467;-66
2022/08/03 01:23:21;;;;;;;61.77;5.50;;;;;;;;;;5113993;28;20468;-66
2022/08/03 01:25:59;;;;;;;59.40;3.70;;;;;;;;;;5115361;28;20445;-66
2022/08/03 01:28:31;;;;;;;61.30;4.50;;;;;;;;;;5115008;28;20485;-66
2022/08/03 01:31:02;;;;;;;60.60;4.10;;;;;;;;;;5115050;28;20469;-66
2022/08/03 01:33:35;;;;;;;59.40;4.23;;;;;;;;;;5115043;28;20964;-66
2022/08/03 01:36:03;;;;;;;60.37;4.13;;;;;;;;;;5115186;28;20472;-66
2022/08/03 01:38:33;;;;;;;59.97;4.20;;;;;;;;;;5114844;28;20456;-66
2022/08/03 01:41:03;;;;;;;60.30;3.97;;;;;;;;;;5113351;28;20491;-66
2022/08/03 01:43:31;;;;;;;60.60;4.70;;;;;;;;;;5112619;28;20449;-66
2022/08/03 01:46:00;;;;;;;59.77;4.43;;;;;;;;;;5114379;27;20450;-66
2022/08/03 01:48:28;;;;;;;61.67;4.27;;;;;;;;;;5113445;28;20673;-67
2022/08/03 01:50:57;;;;;;;60.80;4.70;;;;;;;;;;5114410;28;21007;-66
2022/08/03 01:53:25;;;;;;;60.87;5.10;;;;;;;;;;5114525;28;20449;-66
2022/08/03 01:55:55;;;;;;;59.57;4.40;;;;;;;;;;5114579;28;20450;-66
2022/08/03 01:58:25;;;;;;;60.83;4.93;;;;;;;;;;5114603;28;20953;-66
2022/08/03 02:00:58;;;;;;;61.30;4.70;;;;;;;;;;5114276;28;21123;-66
2022/08/03 02:03:27;;;;;;;62.30;4.80;;;;;;;;;;5113330;28;20540;-66
2022/08/03 02:05:55;;;;;;;59.80;4.27;;;;;;;;;;5114310;28;20452;-66
2022/08/03 02:08:24;;;;;;;59.17;4.20;;;;;;;;;;5112942;28;20580;-67
2022/08/03 02:10:52;;;;;;;59.77;4.40;;;;;;;;;;5114048;28;20466;-66
2022/08/03 02:13:25;;;;;;;61.00;4.97;;;;;;;;;;5114399;28;20441;-66
2022/08/03 02:15:56;;;;;;;59.80;4.30;;;;;;;;;;5114164;27;20449;-66
2022/08/03 02:18:24;;;;;;;60.27;4.10;;;;;;;;;;5113991;28;20514;-64
2022/08/03 02:20:53;;;;;;;60.30;3.97;;;;;;;;;;5112588;28;20474;-66
2022/08/03 02:23:21;;;;;;;59.43;4.20;;;;;;;;;;5112891;28;20445;-66
2022/08/03 02:25:50;;;;;;;60.97;4.57;;;;;;;;;;5114406;28;20456;-66
2022/08/03 02:28:18;;;;;;;59.77;4.13;;;;;;;;;;5077781;28;20916;-66
2022/08/03 02:30:48;;;;;;;60.20;4.13;;;;;;;;;;5113627;28;20836;-66
2022/08/03 02:33:19;;;;;;;60.43;4.70;;;;;;;;;;5113946;28;20477;-66
2022/08/03 02:35:47;;;;;;;59.50;3.80;;;;;;;;;;5112641;28;20452;-66
2022/08/03 02:38:19;;;;;;;59.57;3.87;;;;;;;;;;5113691;27;20537;-66
2022/08/03 02:40:46;;;;;;;59.20;3.33;;;;;;;;;;5113430;28;20988;-66
2022/08/03 02:43:19;;;;;;;59.80;3.70;;;;;;;;;;5113540;27;20820;-64
2022/08/03 02:45:49;;;;;;;59.80;3.80;;;;;;;;;;5113676;28;20454;-64
2022/08/03 02:48:18;;;;;;;59.30;3.57;;;;;;;;;;5113576;28;20481;-64
2022/08/03 02:50:45;;;;;;;58.67;3.23;;;;;;;;;;5113089;28;20483;-64
2022/08/03 02:53:15;;;;;;;60.23;4.83;;;;;;;;;;5112273;28;20992;-64
2022/08/03 02:55:45;;;;;;;59.87;4.40;;;;;;;;;;5113352;28;20453;-64
2022/08/03 02:58:13;;;;;;;60.10;4.00;;;;;;;;;;5113791;28;20441;-66
2022/08/03 03:00:42;;;;;;;59.87;4.10;;;;;;;;;;5111751;28;20481;-66
2022/08/03 03:03:12;;;;;;;59.77;3.77;;;;;;;;;;5113433;28;20449;-66
2022/08/03 03:05:41;;;;;;;60.60;4.30;;;;;;;;;;5113410;28;20548;-66
2022/08/03 03:08:11;;;;;;;62.10;4.90;;;;;;;;;;5113036;28;20481;-66
2022/08/03 03:10:38;;;;;;;59.50;3.80;;;;;;;;;;5113277;28;20465;-66
2022/08/03 03:13:10;;;;;;;60.37;4.60;;;;;;;;;;5113108;28;20453;-66
2022/08/03 03:15:41;;;;;;;59.20;3.80;;;;;;;;;;5113153;28;20972;-67
2022/08/03 03:18:08;;;;;;;59.57;3.83;;;;;;;;;;5113008;28;20468;-66
2022/08/03 03:20:37;;;;;;;59.80;4.30;;;;;;;;;;5112637;28;20461;-66
2022/08/03 03:23:05;;;;;;;59.20;3.67;;;;;;;;;;5111701;28;20445;-66
2022/08/03 03:25:35;;;;;;;59.30;4.00;;;;;;;;;;5113067;28;20536;-66
2022/08/03 03:28:04;;;;;;;60.37;3.90;;;;;;;;;;5113039;28;20853;-66
2022/08/03 03:30:34;;;;;;;59.93;4.43;;;;;;;;;;5112598;28;20461;-66
2022/08/03 03:33:01;;;;;;;60.43;4.10;;;;;;;;;;5112686;28;21050;-66
2022/08/03 03:35:28;;;;;;;59.50;3.80;;;;;;;;;;5112708;28;20485;-66
2022/08/03 03:37:57;;;;;;;60.20;4.70;;;;;;;;;;5112556;28;20972;-66
2022/08/03 03:40:24;;;;;;;61.47;4.77;;;;;;;;;;5111093;28;20497;-66
2022/08/03 03:42:52;;;;;;;59.27;3.70;;;;;;;;;;5112718;28;20448;-66
2022/08/03 03:45:20;;;;;;;60.13;4.10;;;;;;;;;;5112074;28;20445;-66
2022/08/03 03:47:48;;;;;;;60.00;3.73;;;;;;;;;;5112372;28;20529;-66
2022/08/03 03:50:16;;;;;;;60.10;4.20;;;;;;;;;;5112126;28;20847;-66
2022/08/03 03:52:43;;;;;;;59.77;3.73;;;;;;;;;;5112600;28;20442;-66
2022/08/03 03:55:10;;;;;;;59.60;3.87;;;;;;;;;;5112395;28;20449;-66
2022/08/03 03:57:38;;;;;;;59.80;4.00;;;;;;;;;;5112563;28;20499;-66
2022/08/03 04:00:06;;;;;;;59.77;4.13;;;;;;;;;;5112059;28;20477;-66
2022/08/03 04:02:34;;;;;;;60.30;4.63;;;;;;;;;;5111076;28;20454;-66
2022/08/03 04:10:58;;;;;;;59.80;3.70;;;;;;;;;;5111982;28;20468;-66
2022/08/03 04:13:29;;;;;;;64.83;4.20;;;;;;;;;;5112470;28;20448;-66
2022/08/03 04:15:59;;;;;;;59.90;4.43;;;;;;;;;;5111981;28;20453;-66
2022/08/03 04:18:28;;;;;;;59.77;4.07;;;;;;;;;;5112169;28;20529;-66
2022/08/03 04:20:59;;;;;;;60.00;4.03;;;;;;;;;;5111398;28;21008;-66
2022/08/03 04:23:27;;;;;;;60.07;4.50;;;;;;;;;;5110841;28;20449;-66
2022/08/03 04:25:56;;;;;;;60.17;4.27;;;;;;;;;;5112115;28;20451;-66
2022/08/03 04:28:24;;;;;;;61.20;5.77;;;;;;;;;;5112099;28;20477;-66
2022/08/03 04:30:55;;;;;;;60.00;4.30;;;;;;;;;;5110075;28;20472;-66
2022/08/03 04:33:23;;;;;;;60.17;4.77;;;;;;;;;;5112121;28;20450;-66
2022/08/03 04:35:52;;;;;;;59.97;4.20;;;;;;;;;;5111935;28;20445;-66
2022/08/03 04:38:21;;;;;;;59.57;3.87;;;;;;;;;;5111579;28;20446;-66
2022/08/03 04:40:50;;;;;;;61.60;4.53;;;;;;;;;;5111847;28;20476;-66
2022/08/03 04:43:19;;;;;;;62.03;4.00;;;;;;;;;;5112022;28;20445;-66
2022/08/03 04:45:52;;;;;;;59.80;4.20;;;;;;;;;;5111948;28;20446;-67
2022/08/03 04:48:21;;;;;;;60.00;4.20;;;;;;;;;;5111653;28;20505;-66
2022/08/03 04:50:48;;;;;;;61.10;4.33;;;;;;;;;;5111531;28;20854;-66
2022/08/03 04:53:17;;;;;;;59.73;4.13;;;;;;;;;;5112053;28;20449;-67
2022/08/03 04:55:45;;;;;;;59.30;3.90;;;;;;;;;;5111963;28;20940;-67
2022/08/03 04:58:12;;;;;;;59.90;4.77;;;;;;;;;;5115751;28;20937;-66
2022/08/03 05:00:44;;;;;;;60.37;4.63;;;;;;;;;;5115329;28;20461;-66
2022/08/03 05:03:11;;;;;;;59.40;3.50;;;;;;;;;;5115938;28;20449;-66
2022/08/03 05:05:38;;;;;;;59.27;3.57;;;;;;;;;;5115859;28;20441;-67
2022/08/03 05:08:06;;;;;;;59.20;3.97;;;;;;;;;;5115324;28;21008;-66
2022/08/03 05:10:33;;;;;;;60.13;3.90;;;;;;;;;;5115109;28;20850;-66
2022/08/03 05:13:02;;;;;;;59.87;3.90;;;;;;;;;;5116003;28;20453;-66
2022/08/03 05:15:30;;;;;;;59.47;4.30;;;;;;;;;;5115158;28;20813;-66
2022/08/03 05:17:57;;;;;;;60.40;4.57;;;;;;;;;;5115331;28;20536;-66
2022/08/03 05:20:27;;;;;;;60.87;3.87;;;;;;;;;;5114958;28;20483;-67
2022/08/03 05:22:54;;;;;;;60.10;3.97;;;;;;;;;;5115229;28;20449;-67
2022/08/03 05:25:21;;;;;;;61.17;4.10;;;;;;;;;;5114399;28;20460;-66
2022/08/03 05:27:49;;;;;;;60.27;4.37;;;;;;;;;;5115071;28;20477;-66
2022/08/03 05:30:18;;;;;;;59.47;3.60;;;;;;;;;;5115010;28;20809;-66
2022/08/03 05:32:46;;;;;;;59.43;3.67;;;;;;;;;;5113985;28;20520;-66
2022/08/03 05:35:13;;;;;;;61.63;4.10;;;;;;;;;;5115192;27;20449;-66
2022/08/03 05:37:41;;;;;;;59.67;4.07;;;;;;;;;;5115007;28;20446;-66
2022/08/03 05:40:09;;;;;;;59.27;3.93;;;;;;;;;;5114627;28;20465;-66
2022/08/03 05:42:37;;;;;;;59.30;3.97;;;;;;;;;;5114832;28;20929;-66
2022/08/03 05:45:13;;;;;;;59.33;4.00;;;;;;;;;;5114954;28;20532;-67
2022/08/03 05:47:44;;;;;;;59.70;3.83;;;;;;;;;;5114875;28;20861;-67
2022/08/03 05:50:12;;;;;;;58.87;3.60;;;;;;;;;;5113968;28;20476;-67
2022/08/03 05:52:39;;;;;;;59.67;3.73;;;;;;;;;;5114768;28;20441;-66
2022/08/03 05:55:06;;;;;;;59.87;4.13;;;;;;;;;;5114631;28;20438;-66
2022/08/03 05:57:33;;;;;;;59.50;3.90;;;;;;;;;;5114666;28;20519;-67
2022/08/03 06:00:01;;;;;;;59.20;4.17;;;;;;;;;;5114112;28;20441;-67
2022/08/03 06:02:29;;;;;;;59.83;4.23;;;;;;;;;;5114505;28;20445;-66
2022/08/03 06:04:58;;;;;;;58.93;3.33;;;;;;;;;;5114469;28;20453;-67
2022/08/03 06:07:26;;;;;;;59.67;3.73;;;;;;;;;;5114004;28;20450;-66
2022/08/03 06:09:56;;;;;;;60.00;4.40;;;;;;;;;;5113816;28;20488;-67
2022/08/03 06:12:24;;;;;;;58.83;3.53;;;;;;;;;;5114589;27;20574;-67
2022/08/03 06:14:51;;;;;;;60.20;4.10;;;;;;;;;;5114401;28;20515;-67
2022/08/03 06:17:19;;;;;;;60.10;3.80;;;;;;;;;;5114157;28;21028;-67
2022/08/03 06:19:49;;;;;;;69.77;4.10;;;;;;;;;;5113850;28;20449;-67
2022/08/03 06:22:18;;;;;;;60.10;4.23;;;;;;;;;;5114434;28;20506;-67
2022/08/03 06:24:46;;;;;;;59.50;3.70;;;;;;;;;;5113683;27;20966;-67
2022/08/03 06:27:13;;;;;;;59.30;4.20;;;;;;;;;;5113582;28;20452;-67
2022/08/03 06:29:41;;;;;;;61.03;3.70;;;;;;;;;;5113673;28;20485;-67
2022/08/03 06:32:08;;;;;;;58.90;3.90;;;;;;;;;;5113828;28;20989;-67
2022/08/03 06:34:38;;;;;;;58.97;3.57;;;;;;;;;;5113854;28;20441;-67
2022/08/03 06:37:05;;;;;;;59.40;4.20;;;;;;;;;;5113810;28;20478;-67
2022/08/03 06:39:35;;;;;;;62.13;4.07;;;;;;;;;;5113580;28;20528;-67
2022/08/03 06:42:09;;;;;;;61.17;4.50;;;;;;;;;;5113765;28;20549;-66
2022/08/03 06:44:38;;;;;;;58.97;4.07;;;;;;;;;;5113349;28;20507;-67
2022/08/03 06:47:05;;;;;;;59.50;3.90;;;;;;;;;;5102723;28;20456;-66
2022/08/03 06:49:33;;;;;;;63.53;3.77;;;;;;;;;;5090977;28;20539;-67
2022/08/03 06:52:00;;;;;;;59.60;3.97;;;;;;;;;;5092532;28;20464;-67
2022/08/03 06:54:27;;;;;;;59.30;3.30;;;;;;;;;;5092779;28;20447;-67
2022/08/03 06:56:56;;;;;;;59.00;3.87;;;;;;;;;;5092545;28;20456;-67
2022/08/03 06:59:25;;;;;;;59.03;3.80;;;;;;;;;;5090936;28;20817;-67
2022/08/03 07:01:53;;;;;;;58.40;3.10;;;;;;;;;;5091096;28;20885;-66
2022/08/03 07:04:21;;;;;;;60.30;3.70;;;;;;;;;;5112872;28;20444;-67
2022/08/03 07:06:48;;;;;;;59.30;3.90;;;;;;;;;;5112531;28;20937;-67
2022/08/03 07:09:15;;;;;;;59.10;3.70;;;;;;;;;;5112611;28;20475;-68
2022/08/03 07:11:43;;;;;;;58.57;3.33;;;;;;;;;;5112966;28;20992;-67
2022/08/03 07:14:11;;;;;;;59.90;4.40;;;;;;;;;;5112896;27;20502;-66
2022/08/03 07:16:40;;;;;;;62.83;3.40;;;;;;;;;;5112549;28;20442;-67
2022/08/03 07:19:07;;;;;;;58.40;3.10;;;;;;;;;;5106602;28;20208;-67
2022/08/03 07:21:34;;;;;;;58.80;3.20;;;;;;;;;;5092056;28;20470;-67
2022/08/03 07:24:02;;;;;;;59.53;3.53;;;;;;;;;;5092464;28;20453;-67
2022/08/03 07:26:31;;;;;;;58.20;2.97;;;;;;;;;;5091944;28;21023;-65
2022/08/03 07:28:59;;;;;;;58.93;3.50;;;;;;;;;;5091691;28;20496;-65
2022/08/03 07:31:28;;;;;;;59.27;3.40;;;;;;;;;;5092379;28;20570;-65
2022/08/03 07:33:55;;;;;;;59.27;3.90;;;;;;;;;;5092288;28;20447;-65
2022/08/03 07:36:23;;;;;;;58.60;3.50;;;;;;;;;;5090905;28;20812;-65
2022/08/03 07:38:52;;;;;;;58.43;3.33;;;;;;;;;;5091824;28;20446;-65
2022/08/03 07:41:19;;;;;;;59.40;3.63;;;;;;;;;;5091792;28;20527;-65
2022/08/03 07:43:47;;;;;;;58.80;3.30;;;;;;;;;;5092076;28;21006;-65
2022/08/03 07:46:23;;;;;;;58.13;3.20;;;;;;;;;;5090860;28;20443;-65
2022/08/03 07:48:52;;;;;;;58.77;3.47;;;;;;;;;;5091431;28;20510;-65
2022/08/03 07:51:20;;;;;;;58.30;3.10;;;;;;;;;;5091529;28;20846;-65
2022/08/03 07:53:49;;;;;;;60.17;3.10;;;;;;;;;;5091794;28;20448;-65
2022/08/03 07:56:23;;;;;;;59.17;2.93;;;;;;;;;;5092243;28;20495;-65
2022/08/03 07:58:50;;;;;;;58.40;2.60;;;;;;;;;;5090324;28;20477;-65
2022/08/03 08:01:19;;;;;;;59.00;3.37;;;;;;;;;;5091775;28;20480;-65
2022/08/03 08:03:48;;;;;;;59.03;3.67;;;;;;;;;;5091733;28;20476;-65
2022/08/03 08:06:25;;;;;;;58.80;3.20;;;;;;;;;;5091498;28;20456;-65
2022/08/03 08:08:53;;;;;;;58.70;2.80;;;;;;;;;;5091221;28;20474;-65
2022/08/03 08:11:26;;;;;;;58.30;3.03;;;;;;;;;;5091787;28;20553;-65
2022/08/03 08:13:55;;;;;;;58.27;2.73;;;;;;;;;;5091757;28;20492;-65
2022/08/03 08:16:22;;;;;;;59.40;2.97;;;;;;;;;;5091661;28;20450;-65
2022/08/03 08:18:49;;;;;;;58.40;2.67;;;;;;;;;;5091147;28;20443;-65
2022/08/03 08:21:18;;;;;;;59.00;2.87;;;;;;;;;;5091689;28;20470;-66
2022/08/03 08:23:46;;;;;;;58.20;2.50;;;;;;;;;;5091730;28;20532;-65
2022/08/03 08:26:16;;;;;;;58.30;2.80;;;;;;;;;;5091388;28;20482;-65
2022/08/03 08:28:43;;;;;;;58.17;2.70;;;;;;;;;;5090819;28;20478;-67
2022/08/03 08:31:10;;;;;;;58.23;2.67;;;;;;;;;;5092105;28;21041;-67
2022/08/03 08:33:37;;;;;;;58.63;2.57;;;;;;;;;;5095377;28;20454;-68
2022/08/03 08:36:05;;;;;;;58.70;2.50;;;;;;;;;;5095638;28;20537;-67
2022/08/03 08:38:35;;;;;;;58.17;2.60;;;;;;;;;;5095032;28;20454;-67
2022/08/03 08:41:02;;;;;;;58.20;2.60;;;;;;;;;;5094233;28;20549;-67
2022/08/03 08:43:30;;;;;;;62.57;2.53;;;;;;;;;;5095488;28;20499;-68
2022/08/03 08:46:00;;;;;;;58.20;2.40;;;;;;;;;;5095301;28;20497;-65
2022/08/03 08:48:29;;;;;;;60.50;3.07;;;;;;;;;;5093851;28;20450;-65
2022/08/03 08:50:56;;;;;;;59.17;3.13;;;;;;;;;;5095039;28;20481;-66
2022/08/03 08:53:26;;;;;;;58.20;2.70;;;;;;;;;;5095394;28;20458;-65
2022/08/03 08:55:55;;;;;;;59.17;2.73;;;;;;;;;;5095884;28;20869;-67
2022/08/03 08:58:23;;;;;;;57.87;2.33;;;;;;;;;;5094919;28;20450;-65
2022/08/03 09:00:56;;;;;;;58.47;2.83;;;;;;;;;;5094647;28;20997;-67
2022/08/03 09:03:24;;;;;;;57.90;2.40;;;;;;;;;;5095106;28;20469;-66
2022/08/03 09:05:52;;;;;;;57.77;2.40;;;;;;;;;;5095300;28;20900;-65
2022/08/03 09:08:19;;;;;;;58.10;2.50;;;;;;;;;;5094381;28;20515;-65
2022/08/03 09:10:46;;;;;;;58.00;2.40;;;;;;;;;;5094708;28;20494;-64
2022/08/03 09:13:17;;;;;;;58.30;2.60;;;;;;;;;;5095079;28;20878;-65
2022/08/03 09:15:46;;;;;;;58.23;2.80;;;;;;;;;;5094940;28;20503;-65
2022/08/03 09:18:17;;;;;;;58.37;2.40;;;;;;;;;;5094840;28;20446;-64
2022/08/03 09:20:44;;;;;;;57.97;2.53;;;;;;;;;;5094240;28;20547;-64
2022/08/03 09:23:12;;;;;;;58.47;2.83;;;;;;;;;;5094782;28;20453;-65
2022/08/03 09:25:41;;;;;;;58.30;2.70;;;;;;;;;;5094827;28;20533;-64
2022/08/03 09:28:15;;;;;;;58.83;2.77;;;;;;;;;;5113328;28;20454;-65
2022/08/03 09:30:44;;;;;;;57.87;2.10;;;;;;;;;;5114309;28;20512;-65
2022/08/03 09:33:14;;;;;;;58.20;2.57;;;;;;;;;;5114909;28;20498;-64
2022/08/03 09:35:44;;;;;;;58.00;2.30;;;;;;;;;;5115134;28;20454;-64
2022/08/03 09:38:13;;;;;;;57.90;2.20;;;;;;;;;;5114791;28;20488;-65
2022/08/03 09:40:43;;;;;;;57.87;2.40;;;;;;;;;;5114293;28;20987;-65
2022/08/03 09:43:11;;;;;;;58.10;2.40;;;;;;;;;;5113858;28;20469;-65
2022/08/03 09:45:39;;;;;;;57.57;2.13;;;;;;;;;;5114721;28;20446;-65
2022/08/03 09:48:25;;;;;;;57.80;2.30;;;;;;;;;;5114219;28;20946;-65
2022/08/03 09:50:53;;;;;;;57.77;2.23;;;;;;;;;;5113976;28;20570;-65
2022/08/03 09:53:21;;;;;;;59.90;3.10;;;;;;;;;;5114426;28;20867;-65
2022/08/03 09:55:53;;;;;;;57.70;2.47;;;;;;;;;;5113414;28;20485;-65
2022/08/03 09:58:23;;;;;;;57.57;2.07;;;;;;;;;;5109014;28;20456;-65
2022/08/03 10:01:09;;;;;;;57.60;2.30;;;;;;;;;;5106793;28;20459;-65
2022/08/03 10:03:39;;;;;;;57.80;2.40;;;;;;;;;;5093227;28;20985;-65
2022/08/03 10:06:15;;;;;;;57.90;2.43;;;;;;;;;;5093722;28;20444;-65
2022/08/03 10:08:43;;;;;;;57.50;2.30;;;;;;;;;;5092785;28;20455;-65
2022/08/03 10:14:17;;;;;;;57.70;2.23;;;;;;;;;;5107890;28;20498;-65
2022/08/03 10:16:45;;;;;;;57.87;2.47;;;;;;;;;;5113969;28;20449;-66
2022/08/03 10:19:14;;;;;;;58.17;2.93;;;;;;;;;;5113154;28;20449;-65
2022/08/03 10:21:42;;;;;;;57.57;2.27;;;;;;;;;;5112873;28;20860;-65
2022/08/03 10:24:10;;;;;;;57.47;2.20;;;;;;;;;;5113592;28;20442;-64
2022/08/03 10:26:39;;;;;;;57.30;2.20;;;;;;;;;;5113940;28;20445;-65
2022/08/03 10:29:10;;;;;;;57.20;2.20;;;;;;;;;;5111533;28;20476;-65
2022/08/03 10:31:39;;;;;;;57.23;2.10;;;;;;;;;;5112351;28;20461;-66
2022/08/03 10:34:11;;;;;;;57.40;2.60;;;;;;;;;;5113728;28;20445;-66
2022/08/03 10:36:41;;;;;;;57.40;2.40;;;;;;;;;;5110148;28;20485;-66
2022/08/03 10:39:09;;;;;;;56.57;2.17;;;;;;;;;;5112934;28;20457;-67
2022/08/03 10:41:41;;;;;;;57.00;2.37;;;;;;;;;;5113494;28;20832;-66
2022/08/03 10:44:13;;;;;;;57.00;2.53;;;;;;;;;;5112873;28;20473;-67
2022/08/03 10:46:46;;;;;;;56.93;2.13;;;;;;;;;;5113782;28;20499;-66
2022/08/03 10:49:15;;;;;;;56.13;2.27;;;;;;;;;;5112620;28;20477;-67
2022/08/03 10:57:45;;;;;;;56.77;2.17;;;;;;;;;;5093002;28;20438;-66
2022/08/03 11:00:17;;;;;;;56.77;2.63;;;;;;;;;;5092573;28;20458;-67
2022/08/03 11:03:05;;;;;;;56.50;2.10;;;;;;;;;;5092659;28;20486;-67
2022/08/03 11:05:33;;;;;;;56.97;2.40;;;;;;;;;;5093027;28;20836;-67
2022/08/03 11:08:21;;;;;;;57.63;2.50;;;;;;;;;;5092395;28;20469;-66
2022/08/03 11:13:40;;;;;;;56.93;2.50;;;;;;;;;;5097249;28;20474;-66
2022/08/03 11:16:22;;;;;;;55.83;2.30;;;;;;;;;;5094082;28;20494;-65
2022/08/03 11:21:57;;;;;;;56.80;2.77;;;;;;;;;;5092242;28;21043;-65
2022/08/03 11:24:46;;;;;;;57.00;2.57;;;;;;;;;;5099480;28;20536;-66
2022/08/03 11:40:02;;;;;;;58.40;2.40;;;;;;;;;;5091713;28;20464;-66
2022/08/03 11:48:43;;;;;;;56.30;2.30;;;;;;;;;;5109142;28;20401;-66
2022/08/03 11:51:20;;;;;;;56.47;2.30;;;;;;;;;;5110615;28;20512;-66
2022/08/03 11:53:55;;;;;;;55.97;1.90;;;;;;;;;;5111921;28;20445;-66
2022/08/03 11:56:26;;;;;;;57.27;2.57;;;;;;;;;;5112372;28;20914;-66
2022/08/03 11:58:55;;;;;;;56.17;2.33;;;;;;;;;;5111850;28;20453;-66
2022/08/03 12:01:23;;;;;;;55.97;2.33;;;;;;;;;;5090310;28;20472;-65
2022/08/03 12:10:13;;;;;;;56.40;2.23;;;;;;;;;;5109078;28;20914;-65
2022/08/03 12:13:13;;;;;;;56.50;2.20;;;;;;;;;;5111437;28;20454;-66
2022/08/03 12:15:41;;;;;;;56.63;2.27;;;;;;;;;;5090104;28;20439;-66
2022/08/03 12:18:24;;;;;;;56.37;2.07;;;;;;;;;;5099890;28;20536;-66
2022/08/03 12:20:53;;;;;;;56.90;2.47;;;;;;;;;;5108563;28;20695;-66
2022/08/03 12:23:23;;;;;;;56.80;2.37;;;;;;;;;;5111761;28;20526;-66
2022/08/03 12:25:52;;;;;;;56.47;2.30;;;;;;;;;;5112346;28;20445;-66
2022/08/03 12:28:25;;;;;;;55.40;2.10;;;;;;;;;;5109887;28;20446;-66
2022/08/03 12:30:53;;;;;;;60.20;3.30;;;;;;;;;;5110266;28;20485;-65
2022/08/03 12:33:26;;;;;;;57.07;2.57;;;;;;;;;;5108978;28;20453;-66
2022/08/03 12:36:04;;;;;;;56.67;2.27;;;;;;;;;;5111940;28;20837;-65
2022/08/03 12:38:35;;;;;;;56.30;2.30;;;;;;;;;;5111008;28;20992;-66
2022/08/03 12:41:07;;;;;;;56.70;2.70;;;;;;;;;;5110524;28;20674;-66
2022/08/03 12:43:35;;;;;;;56.20;2.40;;;;;;;;;;5111698;28;20453;-66
2022/08/03 12:46:11;;;;;;;55.93;2.33;;;;;;;;;;5111843;28;20532;-66
2022/08/03 12:48:56;;;;;;;56.00;2.03;;;;;;;;;;5111112;28;20456;-66
2022/08/03 12:51:26;;;;;;;56.37;2.40;;;;;;;;;;5111520;28;20489;-66
2022/08/03 12:53:53;;;;;;;55.67;2.30;;;;;;;;;;5111611;28;20510;-66
2022/08/03 12:56:22;;;;;;;58.30;2.57;;;;;;;;;;5111682;28;20447;-66
2022/08/03 12:58:50;;;;;;;55.87;2.20;;;;;;;;;;5111337;28;20790;-66
2022/08/03 13:01:17;;;;;;;55.43;2.10;;;;;;;;;;5110390;28;20462;-66
2022/08/03 13:03:45;;;;;;;56.13;2.20;;;;;;;;;;5109551;28;20837;-66
2022/08/03 13:06:13;;;;;;;57.30;2.60;;;;;;;;;;5111596;28;20653;-66
2022/08/03 13:08:41;;;;;;;56.03;1.90;;;;;;;;;;5111254;28;20799;-66
2022/08/03 13:11:31;;;;;;;56.40;2.37;;;;;;;;;;5111065;28;20898;-66
2022/08/03 13:14:01;;;;;;;56.50;2.20;;;;;;;;;;5110923;28;20867;-66
2022/08/03 13:16:28;;;;;;;56.07;2.30;;;;;;;;;;5110643;28;20457;-66
2022/08/03 13:18:57;;;;;;;56.20;2.13;;;;;;;;;;5114496;28;20446;-66
2022/08/03 13:21:25;;;;;;;56.10;2.00;;;;;;;;;;5115035;28;20457;-66
2022/08/03 13:23:52;;;;;;;56.23;2.13;;;;;;;;;;5114827;27;20434;-66
2022/08/03 13:26:20;;;;;;;56.60;2.07;;;;;;;;;;5114844;28;21202;-66
2022/08/03 13:28:52;;;;;;;55.50;2.10;;;;;;;;;;5114784;28;20481;-66
2022/08/03 13:31:19;;;;;;;55.97;2.57;;;;;;;;;;5114434;28;20667;-66
2022/08/03 13:33:46;;;;;;;55.97;1.97;;;;;;;;;;5114702;28;20441;-66
2022/08/03 13:36:13;;;;;;;56.40;1.90;;;;;;;;;;5113003;28;20453;-66
2022/08/03 13:38:41;;;;;;;55.97;1.87;;;;;;;;;;5113126;28;20474;-66
2022/08/03 13:41:08;;;;;;;56.40;2.20;;;;;;;;;;5113646;28;21030;-66
2022/08/03 13:43:35;;;;;;;55.60;2.07;;;;;;;;;;5114783;28;20676;-66
2022/08/03 13:46:05;;;;;;;56.50;2.20;;;;;;;;;;5114774;28;20449;-66
2022/08/03 13:48:33;;;;;;;56.50;2.27;;;;;;;;;;5113171;28;20540;-66
2022/08/03 13:51:01;;;;;;;56.07;1.90;;;;;;;;;;5113968;28;20489;-66
2022/08/03 13:53:28;;;;;;;57.00;2.50;;;;;;;;;;5114372;28;20541;-66
2022/08/03 13:55:55;;;;;;;56.17;2.40;;;;;;;;;;5114659;28;20445;-66
2022/08/03 13:58:23;;;;;;;55.53;2.00;;;;;;;;;;5114570;28;20442;-66
2022/08/03 14:00:51;;;;;;;55.70;2.17;;;;;;;;;;5112886;28;20468;-66
2022/08/03 14:03:22;;;;;;;55.97;2.30;;;;;;;;;;5114361;28;20441;-66
2022/08/03 14:05:49;;;;;;;55.47;1.93;;;;;;;;;;5112843;28;20457;-66
2022/08/03 14:08:17;;;;;;;56.27;2.43;;;;;;;;;;5095863;28;20450;-66
2022/08/03 14:10:45;;;;;;;56.30;2.40;;;;;;;;;;5093512;28;20482;-66
2022/08/03 14:13:14;;;;;;;56.40;2.10;;;;;;;;;;5093377;28;20522;-66
2022/08/03 14:15:42;;;;;;;56.07;1.87;;;;;;;;;;5093754;28;20446;-66
2022/08/03 14:18:10;;;;;;;56.30;2.07;;;;;;;;;;5093491;28;20442;-66
2022/08/03 14:20:39;;;;;;;56.17;2.10;;;;;;;;;;5093500;28;21022;-66
2022/08/03 14:23:07;;;;;;;56.20;2.00;;;;;;;;;;5093338;28;20930;-66
2022/08/03 14:25:34;;;;;;;56.03;1.97;;;;;;;;;;5091614;28;20455;-66
2022/08/03 14:28:01;;;;;;;56.10;2.20;;;;;;;;;;5093145;28;20948;-65
2022/08/03 14:30:28;;;;;;;56.43;2.20;;;;;;;;;;5093059;28;20573;-66
2022/08/03 14:32:56;;;;;;;56.00;2.10;;;;;;;;;;5093352;28;20489;-66
2022/08/03 14:35:24;;;;;;;57.73;2.20;;;;;;;;;;5092022;28;20529;-66
2022/08/03 14:37:53;;;;;;;56.50;2.17;;;;;;;;;;5094476;28;20557;-66
2022/08/03 14:40:21;;;;;;;56.53;2.43;;;;;;;;;;5113431;28;20461;-66
2022/08/03 14:42:49;;;;;;;56.57;2.10;;;;;;;;;;5113561;28;20506;-66
2022/08/03 14:45:16;;;;;;;56.37;2.23;;;;;;;;;;5112764;28;20859;-66
2022/08/03 14:47:46;;;;;;;62.20;2.50;;;;;;;;;;5113688;28;20442;-66
2022/08/03 14:50:13;;;;;;;55.87;2.00;;;;;;;;;;5112739;28;20477;-66
2022/08/03 14:52:40;;;;;;;56.80;2.30;;;;;;;;;;5113252;28;20485;-65
2022/08/03 14:55:11;;;;;;;56.93;2.37;;;;;;;;;;5113176;28;20827;-65
2022/08/03 14:57:38;;;;;;;56.70;2.30;;;;;;;;;;5113575;28;20458;-65
2022/08/03 15:00:06;;;;;;;56.17;2.20;;;;;;;;;;5112744;28;20452;-66
2022/08/03 15:02:33;;;;;;;56.97;2.50;;;;;;;;;;5113399;27;20441;-66
2022/08/03 15:05:01;;;;;;;56.53;2.30;;;;;;;;;;5111512;28;20452;-66
2022/08/03 15:07:29;;;;;;;56.37;2.60;;;;;;;;;;5113042;28;20442;-65
2022/08/03 15:09:56;;;;;;;56.87;2.30;;;;;;;;;;5100291;28;20825;-65
2022/08/03 15:12:32;;;;;;;56.60;2.50;;;;;;;;;;5090637;28;20839;-66
2022/08/03 15:14:59;;;;;;;56.20;2.40;;;;;;;;;;5091914;28;20446;-65
2022/08/03 15:17:26;;;;;;;58.70;2.93;;;;;;;;;;5092182;28;20455;-65
2022/08/03 15:19:54;;;;;;;56.80;2.43;;;;;;;;;;5090607;28;20451;-65
2022/08/03 15:22:22;;;;;;;56.47;2.10;;;;;;;;;;5092477;28;20446;-66
2022/08/03 15:24:50;;;;;;;56.80;2.30;;;;;;;;;;5092097;28;20947;-66
2022/08/03 15:27:18;;;;;;;56.70;2.47;;;;;;;;;;5092593;28;20485;-66
2022/08/03 15:29:47;;;;;;;56.63;2.30;;;;;;;;;;5091861;28;20443;-66